MUHG/HOG METAR and TAF weather

Enter ICAO airport designator
Station Type Date Time Source
MUHG METAR 2019/04/23 03:50 UTC NOAA

MUHG 230350Z 08004KT 8000 VCFG FEW030 23/20 Q1016


Station Type Date Time Source
MUHG Decoded METAR 2019/04/23 03:50 UTC NOAA

Holguin Civ / Mil , Cuba (MUHG) 20-47N 076-19W
Apr 22, 2019 - 11:50 PM EDT / 2019.04.23 0350 UTC
Wind: from the E (080 degrees) at 5 MPH (4 KT):0
Visibility: 4 mile(s):0
Sky conditions: mostly clear
Weather: fog in the vicinity
Temperature: 73 F (23 C)
Dew Point: 68 F (20 C)
Relative Humidity: 83%
Pressure (altimeter): 30.00 in. Hg (1016 hPa)
ob: MUHG 230350Z 08004KT 8000 VCFG FEW030 23/20 Q1016
cycle: 4

Station Type Date Time Source
MUHG TAF 2019/04/22 18:03 UTC NOAA

TAF MUHG 221700Z 2218/2318 07010KT 9000 SCT020 BKN080
TEMPO 2218/2224 5000 SHRA SCT018CB BKN020
BECMG 2302/2305 VRB03KT
BECMG 2315/2317 09012KT

Example: see airport list